Madison, AL (35758)

11:20 PM CST on December 10, 2016 (GMT -0600)
madison | | Change Station

Elev 751 ft 34.71 °N, 86.75 °W | Updated 40 seconds ago

Clear
Clear
33.3 °F
Feels Like 33 °F
N
0.9
Wind Variable Wind from ESE
Gusts 1.0 mph

Today
High -- | Low -- °F
--% Chance of Precip.
Yesterday
High -- | Low -- °F
Precip. -- in
Pressure 30.40 in
Visibility 10.0 miles
Clouds Clear
Windchill 33 °F
Dew Point 20 °F
Humidity 57%
Rainfall 0.00 in
Snow Depth Not available.
6:43 AM 4:36 PM
Waxing Gibbous, 89% visible
METAR KHUA 110458Z AUTO 00000KT 10SM CLR M01/M07 A3038 RMK AO2 SLP295 T10141066
Pressure 30.40 in
Visibility 10.0 miles
Clouds Clear
Windchill 33 °F
Dew Point 20 °F
Humidity 57%
Rainfall 0.00 in
Snow Depth Not available.
6:43 AM 4:36 PM
Waxing Gibbous, 89% visible
METAR KHUA 110458Z AUTO 00000KT 10SM CLR M01/M07 A3038 RMK AO2 SLP295 T10141066

10-Day Weather Forecast

Almanac

Astronomy

Dec. 10, 2016 Rise Set
Actual Time
Civil Twilight
Nautical Twilight
Astronomical Twilight
Moon
Length of Visible Light
Length of Day
Tomorrow will be .
, % of the Moon is Illuminated

Today's Extremes

State Highs State Lows

Community

WunderPhotos

Upload Photos

1,956,705 photos uploaded!

WunderBlog® & News

Nearby

Air Quality

  Air Quality AQ Index Pollutant
Not available.

Snow Depth

Station Depth Elevation

Earthquake Activity

City Distance Mag. Time & Date
Minimum magnitude displayed is 2.5.

Coastal Water Temperatures

Place Temperature

Stations

Nearby Weather Stations

Station Location Temp. Windchill Dew Point Humidity Wind Precip. Elev Updated Type
                   

Watches & Warnings

There are currently no watches in effect.